createdAt,value
2022-10-09T00:01:12.455Z,15.10
2022-10-09T00:03:03.107Z,13.90
2022-10-09T00:04:53.856Z,14.52
2022-10-09T00:06:44.643Z,13.60
2022-10-09T00:08:37.480Z,13.73
2022-10-09T00:10:28.590Z,12.50
2022-10-09T00:12:19.085Z,12.50
2022-10-09T00:14:09.878Z,11.15
2022-10-09T00:16:03.949Z,12.23
2022-10-09T00:17:54.633Z,12.57
2022-10-09T00:19:45.528Z,11.15
2022-10-09T00:21:36.413Z,10.23
2022-10-09T00:23:27.199Z,10.07
2022-10-09T00:25:19.299Z,10.52
2022-10-09T00:27:09.946Z,9.80
2022-10-09T00:29:00.781Z,9.60
2022-10-09T00:30:52.102Z,9.50
2022-10-09T00:32:42.668Z,9.50
2022-10-09T00:34:33.563Z,9.02
2022-10-09T00:36:26.256Z,8.73
2022-10-09T00:38:17.102Z,8.00
2022-10-09T00:40:08.856Z,8.20
2022-10-09T00:42:01.660Z,8.02
2022-10-09T00:43:55.129Z,8.02
2022-10-09T00:45:51.499Z,7.03
2022-10-09T00:47:46.511Z,7.75
2022-10-09T00:49:37.284Z,6.93
2022-10-09T00:51:31.125Z,8.45
2022-10-09T00:53:26.125Z,8.30
2022-10-09T00:55:17.377Z,7.35
2022-10-09T00:57:10.287Z,6.85
2022-10-09T00:59:02.836Z,7.78
2022-10-09T01:00:53.852Z,8.05
2022-10-09T01:02:44.979Z,6.13
2022-10-09T01:04:36.257Z,5.43
2022-10-09T01:06:44.430Z,5.70
2022-10-09T01:08:44.196Z,6.57
2022-10-09T01:10:45.030Z,6.18
2022-10-09T01:12:48.595Z,5.00
2022-10-09T01:14:49.776Z,5.43
2022-10-09T01:16:47.328Z,5.68
2022-10-09T01:18:46.795Z,7.20
2022-10-09T01:20:49.334Z,7.45
2022-10-09T01:22:53.429Z,8.40
2022-10-09T01:24:52.641Z,6.18
2022-10-09T01:27:09.783Z,6.95
2022-10-09T01:29:06.346Z,5.95
2022-10-09T01:31:00.015Z,5.82
2022-10-09T01:32:53.372Z,5.70
2022-10-09T01:34:45.944Z,5.95
2022-10-09T01:38:30.218Z,5.17
2022-10-09T01:40:23.565Z,5.38
2022-10-09T01:42:18.442Z,5.43
2022-10-09T01:44:17.391Z,5.30
2022-10-09T01:46:21.238Z,4.93
2022-10-09T01:48:17.314Z,4.75
2022-10-09T01:50:18.720Z,5.25
2022-10-09T01:52:24.488Z,6.15
2022-10-09T01:54:20.918Z,5.03
2022-10-09T01:56:19.022Z,5.32
2022-10-09T01:58:18.536Z,5.30
2022-10-09T02:00:12.094Z,4.80
2022-10-09T02:02:02.730Z,5.55
2022-10-09T02:03:56.508Z,5.07
2022-10-09T02:05:51.244Z,6.18
2022-10-09T02:07:42.073Z,5.70
2022-10-09T02:09:34.192Z,5.07
2022-10-09T02:11:29.278Z,5.10
2022-10-09T02:13:21.412Z,5.32
2022-10-09T02:15:12.516Z,4.32
2022-10-09T02:17:09.098Z,4.85
2022-10-09T02:19:05.876Z,5.15
2022-10-09T02:21:05.578Z,4.78
2022-10-09T02:22:58.398Z,4.78
2022-10-09T02:24:49.485Z,5.88
2022-10-09T02:26:40.716Z,4.68
2022-10-09T02:28:33.188Z,4.90
2022-10-09T02:30:27.972Z,4.65
2022-10-09T02:32:18.921Z,5.15
2022-10-09T02:34:12.690Z,4.03
2022-10-09T02:36:03.712Z,4.50
2022-10-09T02:37:54.248Z,4.40
2022-10-09T02:39:45.101Z,4.97
2022-10-09T02:41:36.211Z,4.78
2022-10-09T02:43:27.052Z,4.72
2022-10-09T02:45:18.953Z,4.90
2022-10-09T02:47:09.809Z,4.68
2022-10-09T02:49:00.871Z,4.80
2022-10-09T02:50:51.184Z,4.55
2022-10-09T02:52:41.917Z,5.07
2022-10-09T02:54:32.780Z,5.07
2022-10-09T02:56:23.841Z,5.03
2022-10-09T02:58:14.566Z,4.97
2022-10-09T03:00:07.408Z,5.30
2022-10-09T03:01:59.648Z,5.57
2022-10-09T03:03:50.695Z,4.53
2022-10-09T03:05:41.735Z,4.53
2022-10-09T03:07:32.455Z,5.00
2022-10-09T03:09:23.664Z,4.57
2022-10-09T03:11:16.755Z,5.13
2022-10-09T03:13:07.547Z,5.32
2022-10-09T03:14:57.863Z,4.78
2022-10-09T03:16:48.768Z,4.93
2022-10-09T03:18:41.200Z,4.97
2022-10-09T03:20:32.296Z,4.97
2022-10-09T03:22:23.392Z,4.57
2022-10-09T03:24:14.555Z,4.90
2022-10-09T03:26:08.298Z,5.57
2022-10-09T03:27:58.832Z,4.97
2022-10-09T03:29:49.556Z,4.47
2022-10-09T03:31:51.994Z,4.72
2022-10-09T03:33:45.066Z,4.85
2022-10-09T03:35:35.487Z,4.78
2022-10-09T03:37:26.499Z,4.85
2022-10-09T03:39:17.442Z,4.45
2022-10-09T03:41:08.444Z,4.50
2022-10-09T03:42:59.244Z,5.18
2022-10-09T03:44:50.748Z,5.22
2022-10-09T03:46:41.463Z,4.95
2022-10-09T03:48:34.183Z,5.32
2022-10-09T03:50:26.278Z,4.78
2022-10-09T03:52:16.834Z,5.05
2022-10-09T03:54:07.700Z,5.70
2022-10-09T03:55:58.572Z,4.85
2022-10-09T03:57:49.417Z,5.10
2022-10-09T03:59:40.316Z,5.93
2022-10-09T04:01:31.337Z,5.85
2022-10-09T04:03:21.802Z,5.72
2022-10-09T04:05:12.489Z,6.25
2022-10-09T04:07:04.655Z,6.97
2022-10-09T04:08:55.133Z,6.65
2022-10-09T04:10:46.036Z,6.93
2022-10-09T04:12:37.020Z,7.40
2022-10-09T04:14:27.880Z,7.47
2022-10-09T04:16:18.783Z,7.55
2022-10-09T04:18:09.456Z,7.35
2022-10-09T04:20:00.254Z,8.27
2022-10-09T04:21:50.855Z,8.32
2022-10-09T04:23:43.014Z,6.82
2022-10-09T04:27:24.313Z,7.30
2022-10-09T04:29:15.301Z,6.57
2022-10-09T04:31:06.131Z,7.80
2022-10-09T04:32:57.128Z,8.52
2022-10-09T04:34:48.120Z,8.50
2022-10-09T04:36:38.675Z,8.25
2022-10-09T04:38:31.570Z,7.68
2022-10-09T04:40:23.708Z,7.82
2022-10-09T04:42:14.480Z,7.90
2022-10-09T04:44:05.331Z,7.20
2022-10-09T04:45:56.258Z,7.10
2022-10-09T04:47:46.972Z,7.65
2022-10-09T04:49:37.778Z,6.88
2022-10-09T04:51:28.817Z,6.38
2022-10-09T04:53:19.382Z,7.20
2022-10-09T04:55:10.547Z,6.95
2022-10-09T04:57:02.418Z,7.70
2022-10-09T04:58:53.064Z,6.80
2022-10-09T05:00:46.177Z,6.68
2022-10-09T05:02:37.351Z,7.00
2022-10-09T05:04:27.957Z,8.07
2022-10-09T05:06:20.751Z,7.15
2022-10-09T05:08:11.432Z,7.43
2022-10-09T05:10:02.055Z,8.48
2022-10-09T05:11:52.815Z,7.28
2022-10-09T05:13:47.289Z,7.15
2022-10-09T05:15:38.304Z,7.97
2022-10-09T05:17:29.080Z,7.10
2022-10-09T05:19:19.765Z,6.57
2022-10-09T05:21:11.050Z,7.20
2022-10-09T05:23:01.616Z,6.97
2022-10-09T05:24:52.482Z,6.97
2022-10-09T05:26:43.350Z,7.22
2022-10-09T05:28:35.118Z,8.00
2022-10-09T05:30:27.717Z,7.90
2022-10-09T05:32:18.268Z,7.35
2022-10-09T05:34:09.354Z,8.60
2022-10-09T05:36:02.287Z,8.23
2022-10-09T05:37:52.781Z,7.78
2022-10-09T05:39:43.501Z,9.38
2022-10-09T05:41:34.424Z,8.32
2022-10-09T05:43:26.157Z,8.50
2022-10-09T05:45:16.924Z,8.02
2022-10-09T05:47:09.169Z,8.27
2022-10-09T05:49:02.087Z,9.50
2022-10-09T05:50:52.914Z,9.20
2022-10-09T05:52:43.782Z,8.95
2022-10-09T05:54:34.483Z,8.88
2022-10-09T05:56:27.843Z,9.57
2022-10-09T05:58:18.558Z,9.18
2022-10-09T06:00:11.495Z,9.18
2022-10-09T06:02:02.402Z,9.23
2022-10-09T06:03:56.596Z,10.75
2022-10-09T06:05:47.303Z,11.07
2022-10-09T06:07:38.177Z,10.25
2022-10-09T06:09:29.198Z,9.57
2022-10-09T06:11:22.380Z,8.55
2022-10-09T06:13:12.882Z,10.05
2022-10-09T06:15:04.356Z,10.68
2022-10-09T06:16:55.141Z,8.95
2022-10-09T06:18:49.420Z,9.30
2022-10-09T06:20:41.568Z,9.13
2022-10-09T06:22:32.291Z,9.70
2022-10-09T06:24:28.838Z,10.27
2022-10-09T06:26:21.528Z,9.52
2022-10-09T06:30:02.363Z,9.32
2022-10-09T06:31:53.457Z,10.50
2022-10-09T06:33:45.473Z,10.27
2022-10-09T06:35:36.952Z,10.45
2022-10-09T06:37:29.086Z,9.25
2022-10-09T06:39:20.037Z,9.18
2022-10-09T06:41:14.044Z,10.43
2022-10-09T06:43:05.489Z,10.32
2022-10-09T06:44:56.417Z,9.25
2022-10-09T06:46:49.560Z,10.43
2022-10-09T06:48:41.032Z,9.68
2022-10-09T06:50:35.400Z,9.55
2022-10-09T06:52:27.574Z,9.55
2022-10-09T06:54:18.177Z,10.07
2022-10-09T06:56:09.925Z,9.07
2022-10-09T06:58:00.783Z,8.18
2022-10-09T06:59:51.645Z,9.75
2022-10-09T07:01:42.351Z,9.45
2022-10-09T07:03:33.833Z,9.23
2022-10-09T07:05:24.921Z,9.20
2022-10-09T07:07:15.365Z,8.25
2022-10-09T07:09:10.312Z,9.35
2022-10-09T07:11:07.078Z,9.40
2022-10-09T07:12:57.647Z,9.75
2022-10-09T07:14:48.375Z,9.27
2022-10-09T07:16:42.566Z,9.88
2022-10-09T07:18:33.821Z,9.85
2022-10-09T07:20:24.507Z,11.15
2022-10-09T07:22:15.296Z,10.00
2022-10-09T07:24:08.271Z,10.57
2022-10-09T07:25:59.986Z,11.85
2022-10-09T07:27:50.900Z,12.25
2022-10-09T07:29:41.368Z,11.20
2022-10-09T07:31:32.128Z,11.75
2022-10-09T07:33:23.122Z,11.40
2022-10-09T07:35:14.207Z,11.55
2022-10-09T07:37:04.831Z,11.05
2022-10-09T07:38:58.144Z,12.75
2022-10-09T07:40:50.141Z,11.90
2022-10-09T07:42:40.888Z,12.00
2022-10-09T07:44:31.932Z,12.32
2022-10-09T07:46:24.558Z,11.98
2022-10-09T07:48:15.552Z,11.98
2022-10-09T07:50:07.877Z,12.18
2022-10-09T07:51:58.907Z,10.82
2022-10-09T07:53:50.855Z,11.35
2022-10-09T07:55:45.448Z,10.18
2022-10-09T07:57:37.397Z,9.90
2022-10-09T08:01:20.535Z,10.48
2022-10-09T08:03:11.785Z,9.57
2022-10-09T08:05:02.682Z,10.20
2022-10-09T08:06:53.600Z,10.00
2022-10-09T08:08:44.861Z,9.50
2022-10-09T08:10:35.662Z,8.85
2022-10-09T08:12:26.714Z,8.52
2022-10-09T08:14:19.555Z,8.85
2022-10-09T08:16:11.116Z,8.95
2022-10-09T08:18:01.784Z,9.00
2022-10-09T08:19:52.465Z,9.20
2022-10-09T08:21:43.202Z,9.18
2022-10-09T08:23:33.887Z,7.53
2022-10-09T08:25:24.795Z,7.75
2022-10-09T08:27:16.009Z,8.20
2022-10-09T08:29:06.974Z,7.03
2022-10-09T08:30:59.167Z,6.65
2022-10-09T08:32:50.407Z,8.52
2022-10-09T08:34:41.819Z,7.35
2022-10-09T08:36:32.650Z,6.70
2022-10-09T08:38:46.266Z,6.95
2022-10-09T08:40:45.210Z,6.78
2022-10-09T08:42:42.893Z,7.10
2022-10-09T08:44:39.271Z,6.63
2022-10-09T08:46:57.388Z,7.13
2022-10-09T08:48:50.796Z,6.45
2022-10-09T08:50:49.637Z,6.88
2022-10-09T08:52:50.253Z,6.82
2022-10-09T08:54:41.097Z,6.93
2022-10-09T08:56:34.243Z,6.50
2022-10-09T08:58:29.478Z,6.97
2022-10-09T09:00:23.859Z,6.38
2022-10-09T09:02:35.813Z,6.00
2022-10-09T09:04:59.988Z,5.35
2022-10-09T09:07:02.539Z,5.78
2022-10-09T09:08:59.694Z,6.03
2022-10-09T09:10:57.456Z,5.78
2022-10-09T09:12:54.689Z,5.50
2022-10-09T09:15:01.363Z,5.85
2022-10-09T09:17:03.160Z,5.45
2022-10-09T09:19:16.155Z,5.65
2022-10-09T09:21:21.924Z,5.00
2022-10-09T09:23:15.904Z,5.45
2022-10-09T09:25:20.460Z,5.30
2022-10-09T09:27:15.876Z,5.18
2022-10-09T09:29:06.901Z,4.75
2022-10-09T09:31:03.353Z,5.00
2022-10-09T09:33:04.686Z,4.18
2022-10-09T09:35:08.161Z,5.28
2022-10-09T09:36:59.112Z,4.60
2022-10-09T09:39:26.057Z,4.72
2022-10-09T09:41:03.152Z,4.15
2022-10-09T09:42:54.969Z,4.00
2022-10-09T09:44:55.864Z,4.28
2022-10-09T09:46:49.208Z,4.70
2022-10-09T09:48:43.379Z,3.72
2022-10-09T09:51:10.367Z,3.80
2022-10-09T09:52:54.722Z,3.58
2022-10-09T09:54:49.034Z,3.92
2022-10-09T09:57:10.603Z,3.60
2022-10-09T09:58:53.943Z,3.55
2022-10-09T10:00:54.876Z,3.00
2022-10-09T10:02:45.436Z,3.30
2022-10-09T10:04:39.839Z,3.15
2022-10-09T10:06:42.128Z,3.40
2022-10-09T10:08:34.430Z,3.20
2022-10-09T10:10:27.309Z,3.10
2022-10-09T10:12:19.277Z,4.05
2022-10-09T10:14:14.440Z,3.30
2022-10-09T10:16:07.895Z,3.10
2022-10-09T10:18:02.597Z,3.25
2022-10-09T10:19:53.171Z,3.38
2022-10-09T10:21:55.071Z,3.70
2022-10-09T10:23:52.222Z,3.30
2022-10-09T10:25:43.085Z,2.80
2022-10-09T10:27:40.291Z,3.10
2022-10-09T10:29:37.111Z,2.95
2022-10-09T10:31:50.241Z,2.97
2022-10-09T10:33:44.514Z,3.00
2022-10-09T10:35:41.282Z,3.05
2022-10-09T10:37:42.602Z,2.88
2022-10-09T10:39:41.616Z,3.00
2022-10-09T10:41:38.699Z,3.03
2022-10-09T10:43:38.924Z,3.10
2022-10-09T10:45:35.394Z,2.75
2022-10-09T10:47:30.802Z,3.10
2022-10-09T10:49:23.125Z,2.85
2022-10-09T10:51:54.160Z,2.70
2022-10-09T10:54:03.141Z,3.00
2022-10-09T10:56:00.210Z,2.47
2022-10-09T10:58:06.639Z,2.22
2022-10-09T11:00:04.610Z,3.35
2022-10-09T11:02:41.987Z,2.50
2022-10-09T11:04:50.520Z,2.78
2022-10-09T11:06:52.098Z,2.50
2022-10-09T11:09:02.933Z,2.47
2022-10-09T11:11:03.257Z,3.08
2022-10-09T11:13:01.050Z,2.97
2022-10-09T11:15:04.755Z,3.00
2022-10-09T11:17:05.163Z,2.70
2022-10-09T11:19:28.327Z,2.72
2022-10-09T11:21:37.450Z,2.63
2022-10-09T11:23:47.421Z,3.22
2022-10-09T11:25:50.403Z,2.95
2022-10-09T11:27:49.833Z,2.90
2022-10-09T11:29:45.239Z,3.17
2022-10-09T11:31:41.250Z,2.72
2022-10-09T11:33:38.667Z,3.00
2022-10-09T11:35:36.776Z,2.70
2022-10-09T11:37:32.779Z,2.97
2022-10-09T11:39:28.588Z,2.92
2022-10-09T11:41:21.534Z,3.35
2022-10-09T11:43:35.457Z,2.83
2022-10-09T11:45:35.947Z,3.17
2022-10-09T11:47:34.573Z,2.88
2022-10-09T11:49:35.744Z,3.10
2022-10-09T11:51:34.777Z,3.08
2022-10-09T11:53:28.454Z,2.65
2022-10-09T11:55:23.888Z,2.83
2022-10-09T11:57:28.251Z,2.70
2022-10-09T11:59:23.985Z,2.50
2022-10-09T12:01:25.985Z,2.60
2022-10-09T12:03:30.747Z,2.80
2022-10-09T12:05:38.600Z,2.75
2022-10-09T12:07:34.260Z,2.60
2022-10-09T12:09:28.800Z,2.75
2022-10-09T12:11:19.996Z,3.35
2022-10-09T12:13:41.695Z,3.28
2022-10-09T12:15:40.528Z,3.50
2022-10-09T12:17:35.104Z,3.42
2022-10-09T12:19:30.055Z,3.05
2022-10-09T12:21:26.309Z,2.53
2022-10-09T12:23:26.616Z,2.42
2022-10-09T12:25:28.125Z,2.65
2022-10-09T12:27:23.988Z,2.90
2022-10-09T12:29:24.443Z,2.80
2022-10-09T12:31:22.029Z,2.83
2022-10-09T12:33:22.564Z,2.90
2022-10-09T12:35:22.531Z,2.65
2022-10-09T12:37:16.736Z,3.00
2022-10-09T12:39:15.829Z,2.80
2022-10-09T12:41:15.603Z,2.47
2022-10-09T12:43:08.647Z,2.47
2022-10-09T12:45:00.588Z,2.97
2022-10-09T12:46:51.934Z,2.90
2022-10-09T12:48:43.623Z,2.67
2022-10-09T12:50:35.856Z,3.20
2022-10-09T12:52:27.463Z,2.83
2022-10-09T12:54:18.264Z,3.10
2022-10-09T12:56:12.266Z,2.80
2022-10-09T12:58:06.604Z,3.00
2022-10-09T12:59:58.135Z,2.25
2022-10-09T13:01:53.755Z,2.87
2022-10-09T13:03:55.066Z,3.17
2022-10-09T13:05:45.907Z,2.90
2022-10-09T13:07:36.959Z,2.72
2022-10-09T13:09:33.944Z,2.70
2022-10-09T13:11:32.793Z,2.65
2022-10-09T13:13:27.255Z,2.75
2022-10-09T13:15:32.351Z,2.92
2022-10-09T13:21:23.183Z,2.05
2022-10-09T13:23:29.355Z,2.42
2022-10-09T13:25:20.301Z,2.60
2022-10-09T13:27:12.059Z,2.90
2022-10-09T13:29:02.985Z,2.60
2022-10-09T13:30:53.911Z,2.40
2022-10-09T13:32:46.372Z,2.97
2022-10-09T13:34:37.315Z,2.60
2022-10-09T13:36:28.072Z,2.50
2022-10-09T13:38:18.946Z,2.08
2022-10-09T13:40:14.072Z,2.30
2022-10-09T13:42:05.414Z,2.47
2022-10-09T13:43:56.375Z,2.93
2022-10-09T13:45:47.346Z,2.63
2022-10-09T13:47:38.338Z,2.20
2022-10-09T13:49:30.431Z,2.28
2022-10-09T13:53:11.835Z,2.75
2022-10-09T13:55:02.720Z,2.50
2022-10-09T13:56:53.796Z,2.20
2022-10-09T13:58:44.709Z,2.42
2022-10-09T14:00:35.853Z,2.20
2022-10-09T14:02:26.641Z,2.40
2022-10-09T14:04:17.246Z,2.65
2022-10-09T14:06:09.585Z,2.28
2022-10-09T14:08:00.035Z,2.17
2022-10-09T14:09:50.734Z,2.70
2022-10-09T14:11:41.665Z,2.00
2022-10-09T14:13:32.786Z,2.35
2022-10-09T14:15:24.174Z,2.38
2022-10-09T14:17:15.214Z,2.35
2022-10-09T14:19:06.588Z,2.65
2022-10-09T14:20:57.070Z,2.60
2022-10-09T14:22:51.742Z,2.17
2022-10-09T14:24:43.495Z,2.75
2022-10-09T14:26:34.338Z,2.30
2022-10-09T14:28:25.268Z,2.40
2022-10-09T14:30:16.374Z,2.80
2022-10-09T14:32:07.159Z,3.20
2022-10-09T14:33:59.473Z,2.78
2022-10-09T14:35:50.058Z,2.78
2022-10-09T14:37:42.218Z,2.95
2022-10-09T14:39:34.250Z,3.17
2022-10-09T14:41:25.027Z,2.55
2022-10-09T14:43:15.985Z,2.95
2022-10-09T14:45:08.719Z,3.03
2022-10-09T14:46:59.316Z,2.35
2022-10-09T14:48:50.492Z,2.60
2022-10-09T14:50:41.304Z,2.75
2022-10-09T14:52:32.404Z,2.75
2022-10-09T14:54:22.962Z,2.60
2022-10-09T14:56:18.312Z,2.45
2022-10-09T14:58:09.012Z,3.83
2022-10-09T14:59:59.772Z,2.63
2022-10-09T15:01:50.684Z,3.08
2022-10-09T15:03:41.883Z,2.35
2022-10-09T15:05:35.185Z,2.83
2022-10-09T15:07:26.057Z,3.10
2022-10-09T15:09:16.851Z,2.88
2022-10-09T15:11:08.422Z,2.30
2022-10-09T15:13:00.443Z,2.35
2022-10-09T15:14:51.650Z,2.95
2022-10-09T15:16:42.444Z,2.83
2022-10-09T15:18:33.350Z,2.65
2022-10-09T15:20:23.883Z,3.35
2022-10-09T15:22:14.713Z,2.70
2022-10-09T15:24:05.956Z,2.78
2022-10-09T15:25:58.838Z,3.17
2022-10-09T15:27:54.424Z,2.85
2022-10-09T15:29:46.752Z,3.17
2022-10-09T15:31:40.242Z,3.03
2022-10-09T15:33:31.441Z,2.85
2022-10-09T15:35:22.431Z,3.60
2022-10-09T15:37:13.418Z,5.22
2022-10-09T15:39:04.826Z,3.53
2022-10-09T15:40:56.806Z,3.42
2022-10-09T15:42:47.581Z,3.22
2022-10-09T15:44:38.482Z,2.70
2022-10-09T15:46:31.427Z,4.10
2022-10-09T15:48:24.485Z,3.70
2022-10-09T15:50:15.219Z,3.50
2022-10-09T15:52:06.056Z,3.65
2022-10-09T15:53:59.846Z,2.92
2022-10-09T15:55:53.077Z,3.25
2022-10-09T15:57:43.978Z,2.88
2022-10-09T15:59:34.997Z,3.40
2022-10-09T16:01:26.450Z,3.28
2022-10-09T16:03:18.675Z,3.50
2022-10-09T16:05:09.812Z,3.65
2022-10-09T16:07:00.261Z,3.90
2022-10-09T16:08:51.019Z,4.28
2022-10-09T16:10:46.403Z,3.80
2022-10-09T16:12:39.383Z,3.20
2022-10-09T16:14:31.317Z,4.93
2022-10-09T16:16:24.668Z,4.35
2022-10-09T16:18:18.319Z,4.93
2022-10-09T16:20:09.945Z,4.50
2022-10-09T16:22:00.810Z,3.00
2022-10-09T16:23:57.358Z,3.13
2022-10-09T16:25:58.556Z,3.53
2022-10-09T16:28:00.843Z,3.00
2022-10-09T16:29:59.787Z,4.28
2022-10-09T16:31:50.713Z,7.63
2022-10-09T16:33:42.892Z,3.58
2022-10-09T16:35:33.913Z,3.30
2022-10-09T16:37:24.534Z,3.70
2022-10-09T16:39:15.213Z,3.20
2022-10-09T16:41:08.884Z,3.17
2022-10-09T16:42:59.491Z,2.92
2022-10-09T16:44:50.165Z,3.03
2022-10-09T16:46:41.171Z,3.40
2022-10-09T16:48:32.898Z,3.28
2022-10-09T16:50:25.586Z,2.60
2022-10-09T16:52:16.055Z,3.10
2022-10-09T16:54:06.972Z,3.58
2022-10-09T16:56:08.533Z,3.25
2022-10-09T16:57:59.388Z,2.88
2022-10-09T16:59:50.371Z,3.03
2022-10-09T17:01:41.419Z,3.05
2022-10-09T17:03:32.294Z,3.20
2022-10-09T17:05:22.953Z,3.22
2022-10-09T17:07:15.411Z,3.17
2022-10-09T17:09:13.534Z,3.85
2022-10-09T17:11:07.848Z,3.47
2022-10-09T17:12:58.356Z,3.25
2022-10-09T17:14:51.373Z,3.42
2022-10-09T17:16:43.265Z,3.10
2022-10-09T17:18:35.161Z,3.42
2022-10-09T17:20:25.995Z,3.50
2022-10-09T17:22:18.789Z,3.15
2022-10-09T17:24:15.068Z,3.17
2022-10-09T17:26:06.669Z,3.78
2022-10-09T17:27:57.454Z,3.90
2022-10-09T17:29:47.879Z,3.65
2022-10-09T17:31:38.732Z,3.97
2022-10-09T17:33:30.196Z,3.25
2022-10-09T17:35:21.176Z,3.63
2022-10-09T17:37:13.139Z,3.70
2022-10-09T17:40:57.646Z,4.00
2022-10-09T17:42:48.664Z,4.35
2022-10-09T17:44:39.912Z,3.97
2022-10-09T17:46:30.866Z,3.40
2022-10-09T17:48:21.791Z,3.50
2022-10-09T17:50:12.374Z,4.10
2022-10-09T17:52:03.325Z,3.65
2022-10-09T17:55:50.931Z,4.18
2022-10-09T17:57:41.547Z,5.20
2022-10-09T17:59:32.697Z,5.38
2022-10-09T18:01:23.636Z,4.65
2022-10-09T18:03:15.164Z,5.82
2022-10-09T18:05:06.858Z,5.25
2022-10-09T18:06:57.790Z,4.80
2022-10-09T18:08:48.469Z,4.60
2022-10-09T18:10:39.370Z,5.60
2022-10-09T18:12:31.842Z,5.03
2022-10-09T18:14:22.524Z,4.63
2022-10-09T18:16:16.363Z,5.15
2022-10-09T18:18:07.542Z,4.85
2022-10-09T18:19:58.209Z,5.70
2022-10-09T18:21:50.376Z,5.25
2022-10-09T18:23:41.100Z,5.82
2022-10-09T18:25:32.176Z,6.78
2022-10-09T18:27:22.959Z,7.80
2022-10-09T18:29:15.359Z,7.05
2022-10-09T18:31:07.316Z,5.88
2022-10-09T18:32:58.423Z,6.60
2022-10-09T18:34:49.031Z,6.30
2022-10-09T18:36:39.914Z,6.43
2022-10-09T18:38:31.271Z,7.60
2022-10-09T18:40:21.909Z,9.65
2022-10-09T18:42:12.656Z,10.38
2022-10-09T18:44:04.426Z,10.48
2022-10-09T18:45:56.769Z,11.10
2022-10-09T18:47:48.088Z,9.60
2022-10-09T18:49:44.060Z,8.23
2022-10-09T18:51:36.276Z,7.75
2022-10-09T18:53:27.219Z,8.35
2022-10-09T18:55:19.671Z,8.27
2022-10-09T18:57:10.706Z,8.07
2022-10-09T18:59:08.849Z,7.38
2022-10-09T19:01:04.250Z,6.93
2022-10-09T19:02:57.580Z,7.10
2022-10-09T19:04:48.948Z,6.50
2022-10-09T19:06:40.043Z,6.32
2022-10-09T19:08:30.637Z,6.95
2022-10-09T19:10:21.230Z,6.80
2022-10-09T19:12:12.132Z,6.75
2022-10-09T19:14:03.057Z,5.97
2022-10-09T19:15:56.166Z,6.03
2022-10-09T19:17:48.382Z,5.82
2022-10-09T19:19:39.595Z,6.68
2022-10-09T19:21:30.021Z,6.38
2022-10-09T19:23:20.805Z,6.30
2022-10-09T19:25:12.157Z,6.15
2022-10-09T19:27:03.801Z,6.60
2022-10-09T19:28:54.415Z,6.40
2022-10-09T19:30:46.170Z,6.55
2022-10-09T19:32:37.199Z,6.10
2022-10-09T19:34:30.104Z,6.47
2022-10-09T19:36:20.854Z,6.47
2022-10-09T19:38:12.082Z,6.60
2022-10-09T19:40:03.029Z,6.05
2022-10-09T19:41:53.489Z,6.15
2022-10-09T19:43:44.442Z,7.63
2022-10-09T19:45:35.618Z,6.50
2022-10-09T19:47:26.674Z,6.13
2022-10-09T19:49:17.827Z,6.82
2022-10-09T19:51:13.776Z,7.05
2022-10-09T19:53:04.207Z,7.55
2022-10-09T19:54:54.995Z,7.30
2022-10-09T19:56:45.612Z,6.55
2022-10-09T19:58:39.204Z,7.78
2022-10-09T20:00:30.432Z,7.43
2022-10-09T20:02:20.884Z,7.10
2022-10-09T20:04:11.821Z,7.78
2022-10-09T20:06:03.537Z,7.03
2022-10-09T20:07:55.988Z,6.90
2022-10-09T20:09:46.769Z,7.20
2022-10-09T20:11:38.094Z,7.72
2022-10-09T20:13:29.310Z,6.70
2022-10-09T20:15:21.688Z,6.60
2022-10-09T20:17:12.725Z,7.10
2022-10-09T20:19:06.660Z,7.35
2022-10-09T20:20:57.438Z,6.68
2022-10-09T20:22:49.299Z,7.53
2022-10-09T20:24:42.040Z,6.40
2022-10-09T20:28:38.790Z,6.63
2022-10-09T20:30:29.458Z,6.80
2022-10-09T20:32:20.454Z,7.00
2022-10-09T20:34:10.917Z,7.18
2022-10-09T20:36:03.909Z,6.78
2022-10-09T20:37:54.801Z,7.05
2022-10-09T20:39:47.512Z,7.10
2022-10-09T20:41:39.348Z,7.53
2022-10-09T20:43:30.096Z,7.82
2022-10-09T20:45:20.698Z,7.88
2022-10-09T20:47:11.727Z,7.25
2022-10-09T20:49:04.302Z,8.60
2022-10-09T20:50:55.280Z,7.60
2022-10-09T20:52:46.438Z,8.68
2022-10-09T20:54:37.452Z,7.53
2022-10-09T20:56:32.855Z,7.75
2022-10-09T20:58:23.578Z,8.07
2022-10-09T21:00:14.823Z,7.72
2022-10-09T21:02:05.633Z,7.93
2022-10-09T21:03:57.414Z,8.73
2022-10-09T21:07:39.119Z,7.88
2022-10-09T21:09:33.255Z,7.53
2022-10-09T21:11:25.065Z,8.68
2022-10-09T21:13:17.471Z,8.90
2022-10-09T21:15:10.591Z,8.57
2022-10-09T21:18:54.942Z,8.43
2022-10-09T21:20:48.487Z,8.48
2022-10-09T21:22:39.332Z,8.27
2022-10-09T21:24:30.240Z,8.00
2022-10-09T21:26:11.865Z,7.80
2022-10-09T21:28:03.275Z,8.05
2022-10-09T21:29:55.309Z,7.30
2022-10-09T21:31:45.745Z,7.90
2022-10-09T21:33:36.958Z,7.50
2022-10-09T21:35:27.782Z,8.75
2022-10-09T21:37:22.387Z,7.93
2022-10-09T21:39:14.057Z,7.53
2022-10-09T21:41:05.216Z,7.90
2022-10-09T21:42:56.105Z,7.70
2022-10-09T21:44:46.980Z,7.75
2022-10-09T21:46:39.047Z,7.50
2022-10-09T21:48:29.791Z,7.13
2022-10-09T21:50:20.682Z,7.85
2022-10-09T21:52:11.490Z,7.45
2022-10-09T21:54:02.423Z,8.18
2022-10-09T21:55:53.188Z,7.47
2022-10-09T21:57:45.293Z,8.00
2022-10-09T21:59:36.155Z,7.78
2022-10-09T22:01:26.902Z,7.30
2022-10-09T22:03:19.100Z,7.32
2022-10-09T22:07:01.634Z,7.63
2022-10-09T22:08:52.731Z,7.97
2022-10-09T22:10:43.494Z,8.00
2022-10-09T22:12:34.512Z,8.82
2022-10-09T22:14:25.296Z,8.15
2022-10-09T22:16:16.103Z,8.00
2022-10-09T22:18:07.419Z,8.77
2022-10-09T22:19:59.125Z,8.45
2022-10-09T22:21:50.245Z,9.02
2022-10-09T22:23:41.434Z,8.85
2022-10-09T22:25:33.362Z,8.40
2022-10-09T22:27:23.921Z,8.73
2022-10-09T22:29:15.005Z,8.02
2022-10-09T22:31:08.906Z,8.02
2022-10-09T22:32:59.639Z,8.38
2022-10-09T22:34:51.275Z,8.27
2022-10-09T22:36:44.024Z,8.52
2022-10-09T22:38:35.238Z,8.10
2022-10-09T22:40:25.852Z,7.97
2022-10-09T22:42:16.825Z,8.43
2022-10-09T22:44:09.200Z,8.10
2022-10-09T22:46:00.068Z,8.13
2022-10-09T22:47:51.277Z,8.00
2022-10-09T22:49:42.187Z,8.48
2022-10-09T22:51:33.494Z,8.35
2022-10-09T22:53:25.752Z,7.85
2022-10-09T22:55:16.805Z,8.55
2022-10-09T22:57:07.429Z,7.80
2022-10-09T22:58:58.091Z,8.93
2022-10-09T23:00:48.697Z,7.50
2022-10-09T23:02:39.454Z,7.80
2022-10-09T23:04:30.207Z,8.93
2022-10-09T23:06:21.138Z,7.60
2022-10-09T23:08:11.815Z,7.13
2022-10-09T23:10:04.715Z,7.53
2022-10-09T23:11:56.720Z,7.53
2022-10-09T23:13:51.899Z,7.80
2022-10-09T23:15:42.353Z,7.70
2022-10-09T23:17:33.175Z,7.93
2022-10-09T23:19:24.109Z,7.80
2022-10-09T23:21:18.353Z,7.13
2022-10-09T23:23:08.976Z,6.95
2022-10-09T23:24:59.745Z,7.47
2022-10-09T23:26:52.683Z,6.75
2022-10-09T23:28:48.362Z,7.20
2022-10-09T23:30:39.641Z,7.22
2022-10-09T23:32:30.784Z,7.45
2022-10-09T23:34:21.695Z,7.32
2022-10-09T23:36:15.051Z,6.80
2022-10-09T23:38:05.989Z,7.90
2022-10-09T23:39:56.851Z,6.70
2022-10-09T23:41:47.897Z,6.88
2022-10-09T23:43:41.373Z,6.38
2022-10-09T23:45:32.202Z,7.00
2022-10-09T23:47:22.863Z,6.70
2022-10-09T23:49:13.630Z,7.03
2022-10-09T23:51:04.834Z,6.50
2022-10-09T23:52:55.532Z,7.53
2022-10-09T23:54:46.434Z,6.85
2022-10-09T23:56:37.368Z,6.80
2022-10-09T23:58:27.918Z,6.65
